Time;durP1;ratioP1;P1;durP2;ratioP2;P2;SDS_P1;SDS_P2;PMS_P1;PMS_P2;Temp;Humidity;BMP_temperature;BMP_pressure;BME280_temperature;BME280_humidity;BME280_pressure;Samples;Min_cycle;Max_cycle;Signal;HPM_P1;HPM_P2
2022/05/15 00:01:21;;;;;;;11.23;2.70;;;16.00;94.40;;;;;;5043527;28;20053;-55
2022/05/15 00:03:48;;;;;;;7.85;2.60;;;16.00;94.40;;;;;;5044319;28;20130;-53
2022/05/15 00:06:15;;;;;;;13.40;2.50;;;16.00;94.40;;;;;;5043763;28;20492;-52
2022/05/15 00:08:41;;;;;;;11.30;2.63;;;16.00;94.60;;;;;;4695615;28;10000190;-54
2022/05/15 00:11:09;;;;;;;9.35;2.58;;;16.00;94.40;;;;;;5045369;28;20091;-55
2022/05/15 00:13:36;;;;;;;10.20;2.50;;;16.00;94.50;;;;;;5046669;28;20099;-53
2022/05/15 00:16:03;;;;;;;11.10;2.50;;;15.90;94.50;;;;;;5047082;28;20081;-54
2022/05/15 00:18:30;;;;;;;11.30;3.35;;;15.90;94.40;;;;;;5047548;28;20075;-53
2022/05/15 00:20:57;;;;;;;13.27;3.47;;;15.90;94.50;;;;;;5044741;28;20057;-53
2022/05/15 00:23:24;;;;;;;11.57;2.78;;;15.90;94.50;;;;;;5044103;28;20137;-55
2022/05/15 00:25:51;;;;;;;11.45;2.67;;;16.00;94.60;;;;;;5039363;28;20189;-54
2022/05/15 00:28:18;;;;;;;16.85;2.92;;;16.00;94.60;;;;;;5043295;28;20083;-56
2022/05/15 00:30:45;;;;;;;12.25;2.42;;;15.90;94.70;;;;;;5044547;28;20128;-56
2022/05/15 00:33:11;;;;;;;10.43;2.22;;;15.90;94.70;;;;;;5043692;28;20048;-52
2022/05/15 00:35:38;;;;;;;8.73;2.55;;;15.90;94.80;;;;;;5044391;28;20083;-56
2022/05/15 00:38:06;;;;;;;9.35;2.88;;;15.90;94.80;;;;;;5046969;28;20077;-55
2022/05/15 00:40:34;;;;;;;7.10;2.63;;;15.90;94.90;;;;;;5046841;28;20087;-54
2022/05/15 00:43:01;;;;;;;11.55;2.88;;;15.90;94.80;;;;;;5046918;28;20055;-54
2022/05/15 00:45:28;;;;;;;12.43;2.38;;;16.00;94.80;;;;;;5045362;28;20041;-55
2022/05/15 00:47:55;;;;;;;9.65;4.47;;;16.00;94.80;;;;;;5047139;28;20139;-54
2022/05/15 00:50:27;;;;;;;9.02;2.83;;;16.00;94.80;;;;;;5050496;28;20137;-55
2022/05/15 00:52:56;;;;;;;12.25;2.60;;;16.00;95.30;;;;;;5049254;28;20491;-53
2022/05/15 00:55:33;;;;;;;10.18;2.80;;;15.90;95.10;;;;;;5043228;28;20075;-56
2022/05/15 00:58:03;;;;;;;8.95;2.25;;;15.90;95.70;;;;;;5049617;28;20083;-55
2022/05/15 01:00:31;;;;;;;10.68;2.60;;;15.90;95.50;;;;;;5045097;28;20049;-55
2022/05/15 01:03:11;;;;;;;9.57;2.53;;;15.90;95.30;;;;;;5049513;28;20073;-54
2022/05/15 01:05:43;;;;;;;9.20;2.45;;;15.90;95.40;;;;;;5050763;28;20041;-55
2022/05/15 01:08:09;;;;;;;7.70;2.60;;;15.90;95.40;;;;;;5028724;28;20476;-54
2022/05/15 01:10:38;;;;;;;8.75;2.80;;;15.90;95.30;;;;;;5050672;28;20135;-53
2022/05/15 01:13:05;;;;;;;7.90;2.92;;;15.90;95.40;;;;;;5050757;28;21154;-54
2022/05/15 01:15:32;;;;;;;10.40;2.75;;;15.90;95.40;;;;;;5050936;28;20073;-55
2022/05/15 01:17:59;;;;;;;6.97;2.22;;;15.90;95.60;;;;;;5033192;28;20080;-54
2022/05/15 01:20:27;;;;;;;7.40;2.17;;;15.80;95.80;;;;;;5050520;28;20187;-55
2022/05/15 01:22:54;;;;;;;14.43;2.97;;;15.80;95.90;;;;;;5050689;28;20080;-53
2022/05/15 01:25:23;;;;;;;7.65;2.30;;;15.70;96.20;;;;;;5050280;28;20740;-52
2022/05/15 01:27:56;;;;;;;13.07;3.63;;;15.80;96.00;;;;;;5049783;28;20106;-53
2022/05/15 01:30:23;;;;;;;8.52;3.15;;;15.80;96.20;;;;;;5049383;28;20148;-54
2022/05/15 01:32:50;;;;;;;7.82;2.40;;;15.70;96.00;;;;;;5050364;28;20083;-55
2022/05/15 01:35:17;;;;;;;9.85;3.05;;;15.70;96.10;;;;;;5050221;28;20076;-54
2022/05/15 01:37:44;;;;;;;14.02;3.10;;;15.70;96.20;;;;;;5049994;28;20037;-55
2022/05/15 01:40:11;;;;;;;7.97;2.70;;;15.70;96.20;;;;;;5046533;28;20063;-56
2022/05/15 01:42:38;;;;;;;10.20;2.45;;;15.60;96.50;;;;;;5046111;28;20041;-53
2022/05/15 01:45:06;;;;;;;16.83;3.47;;;15.50;96.70;;;;;;5049516;28;20136;-55
2022/05/15 01:47:32;;;;;;;13.07;2.95;;;15.50;96.80;;;;;;5050787;28;20049;-53
2022/05/15 01:50:00;;;;;;;12.65;3.95;;;15.50;96.80;;;;;;5050093;28;20079;-52
2022/05/15 01:52:27;;;;;;;9.18;2.97;;;15.50;96.90;;;;;;5041879;28;20575;-56
2022/05/15 01:54:54;;;;;;;18.63;2.90;;;15.60;96.90;;;;;;5048820;28;20132;-54
2022/05/15 01:57:21;;;;;;;11.48;3.42;;;15.50;96.90;;;;;;5049663;28;20132;-54
2022/05/15 01:59:48;;;;;;;11.27;2.67;;;15.50;97.10;;;;;;5049650;28;20132;-54
2022/05/15 02:02:15;;;;;;;7.30;2.92;;;15.30;97.60;;;;;;5048950;28;20128;-56
2022/05/15 02:04:42;;;;;;;9.88;2.85;;;15.30;97.50;;;;;;5049497;28;20146;-52
2022/05/15 02:07:08;;;;;;;11.35;2.70;;;15.30;97.60;;;;;;5048094;28;20095;-53
2022/05/15 02:09:38;;;;;;;14.15;3.10;;;15.30;97.80;;;;;;4786771;27;10000713;-55
2022/05/15 02:12:06;;;;;;;20.83;5.18;;;15.30;97.80;;;;;;5046274;28;20306;-53
2022/05/15 02:14:33;;;;;;;12.55;3.05;;;15.30;97.90;;;;;;5047954;28;20045;-54
2022/05/15 02:17:00;;;;;;;19.00;3.20;;;15.30;97.90;;;;;;5048380;28;20040;-50
2022/05/15 02:19:31;;;;;;;10.50;3.60;;;15.30;97.90;;;;;;5038790;28;20045;-53
2022/05/15 02:21:58;;;;;;;16.67;4.70;;;15.40;97.90;;;;;;5049243;28;20327;-53
2022/05/15 02:24:25;;;;;;;10.13;3.90;;;15.30;98.00;;;;;;5049723;28;20047;-52
2022/05/15 02:26:52;;;;;;;8.80;2.92;;;15.30;98.00;;;;;;5049023;28;20072;-55
2022/05/15 02:29:19;;;;;;;12.68;2.97;;;15.40;98.10;;;;;;5042258;28;20103;-55
2022/05/15 02:31:45;;;;;;;14.52;3.00;;;15.40;98.10;;;;;;5048983;28;20726;-54
2022/05/15 02:34:12;;;;;;;11.80;3.05;;;15.40;98.00;;;;;;5048020;28;20431;-58
2022/05/15 02:36:39;;;;;;;12.25;2.72;;;15.40;98.10;;;;;;5048981;28;20128;-54
2022/05/15 02:39:06;;;;;;;9.68;3.50;;;15.20;98.40;;;;;;5048836;28;20505;-53
2022/05/15 02:41:34;;;;;;;11.63;3.40;;;15.20;98.60;;;;;;5048419;28;20142;-51
2022/05/15 02:44:01;;;;;;;19.63;3.53;;;15.20;98.70;;;;;;5049252;28;20152;-55
2022/05/15 02:46:28;;;;;;;10.15;3.55;;;15.20;98.70;;;;;;5048207;28;20045;-55
2022/05/15 02:51:40;;;;;;;11.80;3.47;;;15.30;98.70;;;;;;5048951;28;20467;-52
2022/05/15 02:54:06;;;;;;;12.15;3.55;;;15.30;98.70;;;;;;5048126;28;20132;-53
2022/05/15 02:56:34;;;;;;;16.58;3.88;;;15.30;98.80;;;;;;5048166;28;20072;-52
2022/05/15 02:59:03;;;;;;;9.90;2.42;;;15.40;99.10;;;;;;5048334;28;20561;-52
2022/05/15 03:01:30;;;;;;;13.20;3.10;;;15.30;98.90;;;;;;5048273;28;20567;-55
2022/05/15 03:03:57;;;;;;;14.20;3.13;;;15.30;99.00;;;;;;5048434;28;20049;-54
2022/05/15 03:06:24;;;;;;;7.00;2.85;;;15.20;99.20;;;;;;5048854;28;20056;-58
2022/05/15 03:08:52;;;;;;;17.33;3.53;;;15.20;99.40;;;;;;5048225;28;20587;-53
2022/05/15 03:11:19;;;;;;;15.45;3.78;;;15.10;99.40;;;;;;5048651;28;20057;-54
2022/05/15 03:13:46;;;;;;;10.13;4.13;;;15.10;99.50;;;;;;5047785;28;20088;-54
2022/05/15 03:16:13;;;;;;;10.98;3.92;;;15.20;99.70;;;;;;5047315;28;20080;-51
2022/05/15 03:18:41;;;;;;;17.92;3.13;;;15.30;99.40;;;;;;5048549;28;20041;-54
2022/05/15 03:21:10;;;;;;;15.93;3.63;;;15.20;99.40;;;;;;5048287;28;20132;-56
2022/05/15 03:23:37;;;;;;;13.43;3.70;;;15.30;99.50;;;;;;5047423;28;20782;-56
2022/05/15 03:26:04;;;;;;;12.38;4.38;;;15.30;99.60;;;;;;5048399;28;20087;-55
2022/05/15 03:28:30;;;;;;;8.25;2.63;;;15.20;99.60;;;;;;5046624;28;20077;-53
2022/05/15 03:30:57;;;;;;;10.23;3.08;;;15.30;99.60;;;;;;5042661;28;20052;-54
2022/05/15 03:33:24;;;;;;;11.27;2.90;;;15.30;99.70;;;;;;5047813;28;20124;-50
2022/05/15 03:35:51;;;;;;;9.02;2.70;;;15.20;99.80;;;;;;5048362;28;20045;-53
2022/05/15 03:38:17;;;;;;;11.05;3.35;;;15.20;99.90;;;;;;5047901;28;20144;-56
2022/05/15 03:40:44;;;;;;;9.27;4.10;;;15.20;99.90;;;;;;5047810;28;20070;-55
2022/05/15 03:43:11;;;;;;;13.52;2.80;;;15.30;99.90;;;;;;5047789;28;20068;-55
2022/05/15 03:45:37;;;;;;;9.52;3.55;;;15.30;99.90;;;;;;5047650;28;20549;-51
2022/05/15 03:48:05;;;;;;;16.15;3.95;;;15.40;99.90;;;;;;5048202;28;20049;-55
2022/05/15 03:50:31;;;;;;;9.77;3.50;;;15.40;99.90;;;;;;5047264;28;20084;-57
2022/05/15 03:52:58;;;;;;;15.23;3.30;;;15.40;99.90;;;;;;5047593;28;20077;-55
2022/05/15 03:55:25;;;;;;;11.60;3.15;;;15.30;99.80;;;;;;5046486;28;20136;-56
2022/05/15 03:57:55;;;;;;;5.35;2.55;;;15.30;99.80;;;;;;5045913;28;20548;-53
2022/05/15 04:00:23;;;;;;;11.50;2.70;;;15.30;99.80;;;;;;5046387;28;20183;-56
2022/05/15 04:02:50;;;;;;;14.65;3.17;;;15.30;99.90;;;;;;5040513;28;20079;-57
2022/05/15 04:05:17;;;;;;;14.93;2.67;;;15.30;99.90;;;;;;5039194;28;20041;-55
2022/05/15 04:07:45;;;;;;;6.40;2.75;;;15.30;99.80;;;;;;5046954;28;20052;-55
2022/05/15 04:10:12;;;;;;;8.00;2.50;;;15.30;99.90;;;;;;5046680;28;20139;-54
2022/05/15 04:12:39;;;;;;;14.27;3.13;;;15.30;99.90;;;;;;5047576;28;20040;-54
2022/05/15 04:15:06;;;;;;;15.52;3.55;;;15.20;99.90;;;;;;5046362;28;20091;-52
2022/05/15 04:17:33;;;;;;;14.02;2.80;;;15.20;99.90;;;;;;5047470;28;20040;-56
2022/05/15 04:20:03;;;;;;;13.85;3.33;;;15.30;99.90;;;;;;5047033;28;20076;-55
2022/05/15 04:22:30;;;;;;;9.48;2.58;;;15.30;99.90;;;;;;5047488;28;20552;-55
2022/05/15 04:24:57;;;;;;;6.10;3.47;;;15.30;99.90;;;;;;5046711;28;20132;-56
2022/05/15 04:27:24;;;;;;;13.77;2.65;;;15.30;99.90;;;;;;5047065;28;20120;-53
2022/05/15 04:29:54;;;;;;;12.18;2.80;;;15.30;99.90;;;;;;5046827;28;20399;-51
2022/05/15 04:32:21;;;;;;;7.32;3.40;;;15.40;99.90;;;;;;5047124;28;20099;-54
2022/05/15 04:34:48;;;;;;;10.50;3.10;;;15.40;99.90;;;;;;5046833;28;20500;-53
2022/05/15 04:37:14;;;;;;;13.18;3.35;;;15.30;99.90;;;;;;5046084;28;20200;-54
2022/05/15 04:39:41;;;;;;;12.93;2.85;;;15.30;99.90;;;;;;5047055;28;20127;-56
2022/05/15 04:42:08;;;;;;;14.40;3.45;;;15.30;99.90;;;;;;5046618;28;20126;-54
2022/05/15 04:44:35;;;;;;;10.65;3.10;;;15.30;99.90;;;;;;5047371;28;20466;-56
2022/05/15 04:47:02;;;;;;;12.70;3.45;;;15.30;99.90;;;;;;5046437;28;20099;-50
2022/05/15 04:49:29;;;;;;;13.18;3.28;;;15.30;99.90;;;;;;5046585;28;20152;-52
2022/05/15 04:51:55;;;;;;;10.95;3.55;;;15.40;99.90;;;;;;5046459;28;20057;-55
2022/05/15 04:54:22;;;;;;;11.23;3.50;;;15.40;99.90;;;;;;5046985;28;20072;-53
2022/05/15 04:56:49;;;;;;;18.75;3.58;;;15.30;99.90;;;;;;5046330;28;20132;-54
2022/05/15 04:59:15;;;;;;;13.15;3.65;;;15.30;99.90;;;;;;5047055;28;20051;-55
2022/05/15 05:01:42;;;;;;;18.95;5.18;;;15.30;99.90;;;;;;5045413;28;20076;-54
2022/05/15 05:04:09;;;;;;;13.02;4.18;;;15.30;99.90;;;;;;5047489;28;20560;-54
2022/05/15 05:06:36;;;;;;;8.73;3.85;;;15.30;99.90;;;;;;5046408;28;20100;-53
2022/05/15 05:09:03;;;;;;;12.68;4.38;;;15.20;99.80;;;;;;5046539;28;20080;-52
2022/05/15 05:11:29;;;;;;;16.95;4.90;;;15.20;99.90;;;;;;5046551;28;20136;-55
2022/05/15 05:13:56;;;;;;;18.10;4.15;;;15.20;99.90;;;;;;5044128;28;20041;-55
2022/05/15 05:16:23;;;;;;;13.88;4.32;;;15.30;99.90;;;;;;5046435;28;20488;-54
2022/05/15 05:18:50;;;;;;;12.23;4.03;;;15.30;99.90;;;;;;5046860;28;20045;-52
2022/05/15 05:21:17;;;;;;;26.88;5.93;;;15.30;99.90;;;;;;5046450;28;20053;-54
2022/05/15 05:23:43;;;;;;;26.08;4.90;;;15.30;99.90;;;;;;5046834;28;20073;-54
2022/05/15 05:26:10;;;;;;;14.13;4.93;;;15.30;99.90;;;;;;5045544;28;20412;-52
2022/05/15 05:28:37;;;;;;;19.45;4.50;;;15.30;99.90;;;;;;5046550;28;20120;-55
2022/05/15 05:31:04;;;;;;;19.83;5.10;;;15.30;99.90;;;;;;5046332;28;20478;-56
2022/05/15 05:33:31;;;;;;;15.45;4.20;;;15.30;99.90;;;;;;5046298;28;20049;-56
2022/05/15 05:35:57;;;;;;;16.02;3.75;;;15.30;99.90;;;;;;5048873;28;20087;-55
2022/05/15 05:38:24;;;;;;;14.00;3.83;;;15.30;99.90;;;;;;5050140;28;20120;-55
2022/05/15 05:40:51;;;;;;;15.52;4.25;;;15.40;99.90;;;;;;5049984;28;20048;-52
2022/05/15 05:43:18;;;;;;;14.00;4.50;;;15.40;99.90;;;;;;5049619;28;20140;-54
2022/05/15 05:45:44;;;;;;;19.02;4.82;;;15.40;99.90;;;;;;5050084;28;20132;-53
2022/05/15 05:48:11;;;;;;;16.55;5.55;;;15.40;99.90;;;;;;5050020;28;20132;-56
2022/05/15 05:50:38;;;;;;;16.70;5.13;;;15.40;99.90;;;;;;5049874;28;20516;-55
2022/05/15 05:53:05;;;;;;;13.77;4.18;;;15.40;99.90;;;;;;5049812;28;20164;-57
2022/05/15 05:55:32;;;;;;;21.83;5.82;;;15.30;99.90;;;;;;5049527;28;20053;-57
2022/05/15 05:57:59;;;;;;;15.80;5.78;;;15.40;99.90;;;;;;5041723;28;20564;-56
2022/05/15 06:00:28;;;;;;;24.15;5.05;;;15.30;99.90;;;;;;5049882;28;20053;-53
2022/05/15 06:04:39;;;;;;;22.17;5.60;;;15.40;99.90;;;;;;5049094;28;20144;-56
2022/05/15 06:05:41;;;;;;;21.13;6.43;;;15.40;99.90;;;;;;5047338;28;20047;-51
2022/05/15 06:08:08;;;;;;;15.20;4.68;;;15.40;99.90;;;;;;5049110;28;20056;-54
2022/05/15 06:10:35;;;;;;;22.73;5.80;;;15.40;99.90;;;;;;5045817;28;20132;-53
2022/05/15 06:13:02;;;;;;;21.33;4.93;;;15.40;99.90;;;;;;5048979;28;20075;-50
2022/05/15 06:15:29;;;;;;;15.02;6.63;;;15.40;99.90;;;;;;5050025;28;20076;-55
2022/05/15 06:17:59;;;;;;;27.30;6.47;;;15.40;99.90;;;;;;5048399;28;20049;-54
2022/05/15 06:20:26;;;;;;;22.20;5.82;;;15.40;99.90;;;;;;5048931;28;20049;-55
2022/05/15 06:22:53;;;;;;;18.50;6.47;;;15.40;99.90;;;;;;5049652;28;20128;-56
2022/05/15 06:25:20;;;;;;;17.35;6.82;;;15.40;99.90;;;;;;5048781;28;20543;-54
2022/05/15 06:27:46;;;;;;;21.95;6.03;;;15.30;99.90;;;;;;5049245;28;20465;-55
2022/05/15 06:30:13;;;;;;;24.40;6.65;;;15.30;99.90;;;;;;5048876;28;20041;-50
2022/05/15 06:32:41;;;;;;;24.35;7.70;;;15.30;99.90;;;;;;5049456;28;20080;-54
2022/05/15 06:35:08;;;;;;;15.82;6.45;;;15.30;99.90;;;;;;5048671;28;20084;-51
2022/05/15 06:37:35;;;;;;;14.63;6.65;;;15.40;99.90;;;;;;5049104;28;20049;-55
2022/05/15 06:40:03;;;;;;;20.50;6.47;;;15.40;99.90;;;;;;5048628;28;20041;-53
2022/05/15 06:42:30;;;;;;;24.60;6.20;;;15.40;99.90;;;;;;5048987;28;20088;-53
2022/05/15 06:44:57;;;;;;;19.60;6.70;;;15.40;99.90;;;;;;5047423;28;20045;-55
2022/05/15 06:47:24;;;;;;;20.90;6.63;;;15.50;99.90;;;;;;5048063;28;20048;-54
2022/05/15 06:49:51;;;;;;;23.92;7.30;;;15.60;99.90;;;;;;5048636;28;20468;-56
2022/05/15 06:52:18;;;;;;;22.00;6.68;;;15.60;99.90;;;;;;5048404;28;20141;-53
2022/05/15 06:54:45;;;;;;;24.73;7.10;;;15.60;99.90;;;;;;5048703;28;20527;-53
2022/05/15 06:57:31;;;;;;;33.70;9.45;;;15.70;99.90;;;;;;5048074;28;20088;-54
2022/05/15 06:59:59;;;;;;;20.05;8.02;;;15.70;99.90;;;;;;5048116;28;20081;-54
2022/05/15 07:02:26;;;;;;;25.00;7.85;;;15.70;99.90;;;;;;5045676;28;20084;-55
2022/05/15 07:04:53;;;;;;;24.60;6.93;;;15.80;99.90;;;;;;5046973;28;20052;-54
2022/05/15 07:07:20;;;;;;;25.50;8.95;;;15.80;99.90;;;;;;5046948;28;20140;-54
2022/05/15 07:09:47;;;;;;;21.88;8.35;;;15.90;99.90;;;;;;5044245;28;20080;-54
2022/05/15 07:12:14;;;;;;;23.42;9.02;;;15.90;99.90;;;;;;5046172;28;20080;-54
2022/05/15 07:14:41;;;;;;;21.95;7.72;;;16.00;99.90;;;;;;5047402;28;20469;-54
2022/05/15 07:17:08;;;;;;;27.63;8.57;;;16.10;99.90;;;;;;5046273;28;20052;-52
2022/05/15 07:19:39;;;;;;;26.92;8.65;;;16.10;99.90;;;;;;5047169;28;20072;-57
2022/05/15 07:22:06;;;;;;;30.13;9.82;;;16.20;99.90;;;;;;5044449;28;20051;-56
2022/05/15 07:24:33;;;;;;;26.38;8.32;;;16.20;99.90;;;;;;5046934;28;20614;-56
2022/05/15 07:27:00;;;;;;;26.42;9.02;;;16.30;99.90;;;;;;5046334;28;20140;-53
2022/05/15 07:29:27;;;;;;;26.65;8.25;;;16.30;99.90;;;;;;5046855;28;20244;-51
2022/05/15 07:31:56;;;;;;;34.85;9.20;;;16.40;99.90;;;;;;5046297;28;20136;-54
2022/05/15 07:34:23;;;;;;;42.92;10.27;;;16.40;99.90;;;;;;5044440;28;20123;-56
2022/05/15 07:36:52;;;;;;;22.98;8.43;;;16.40;99.90;;;;;;5045746;28;20091;-54
2022/05/15 07:39:20;;;;;;;35.70;10.75;;;16.60;99.90;;;;;;5046100;28;20068;-55
2022/05/15 07:41:47;;;;;;;25.30;8.63;;;16.60;99.90;;;;;;5044213;28;20128;-52
2022/05/15 07:44:15;;;;;;;32.63;10.93;;;16.60;99.90;;;;;;5044748;28;20573;-54
2022/05/15 07:46:42;;;;;;;26.95;10.70;;;16.60;99.90;;;;;;5053883;28;20107;-56
2022/05/15 07:49:09;;;;;;;24.60;8.38;;;16.70;99.90;;;;;;5045693;28;20064;-55
2022/05/15 07:51:38;;;;;;;30.17;8.55;;;16.70;99.90;;;;;;5045339;28;20085;-54
2022/05/15 07:54:05;;;;;;;36.87;12.10;;;16.70;99.90;;;;;;4692907;28;9999855;-53
2022/05/15 07:56:31;;;;;;;22.48;9.05;;;16.70;99.90;;;;;;5042089;28;20144;-53
2022/05/15 07:58:58;;;;;;;25.77;9.55;;;16.70;99.90;;;;;;5041907;28;20080;-54
2022/05/15 08:01:25;;;;;;;32.63;10.07;;;16.70;99.90;;;;;;5042820;28;20998;-52
2022/05/15 08:03:52;;;;;;;28.05;9.18;;;16.70;99.90;;;;;;5042439;28;20789;-52
2022/05/15 08:09:05;;;;;;;26.02;9.35;;;16.60;99.90;;;;;;5042058;28;20140;-56
2022/05/15 08:11:32;;;;;;;27.30;10.30;;;16.60;99.90;;;;;;5042695;28;20140;-52
2022/05/15 08:14:02;;;;;;;30.13;8.95;;;16.70;99.90;;;;;;5042730;28;20045;-60
2022/05/15 08:16:29;;;;;;;23.23;8.57;;;16.70;99.90;;;;;;5042387;28;20595;-51
2022/05/15 08:24:27;;;;;;;27.95;9.75;;;16.60;99.90;;;;;;5043037;28;20132;-52
2022/05/15 08:26:54;;;;;;;26.20;9.82;;;16.60;99.90;;;;;;5044078;28;20049;-53
2022/05/15 08:29:20;;;;;;;27.63;10.45;;;16.70;99.90;;;;;;5042682;28;20105;-57
2022/05/15 08:31:47;;;;;;;23.40;9.07;;;16.70;99.90;;;;;;5043145;28;20492;-52
2022/05/15 08:34:14;;;;;;;29.02;9.93;;;16.70;99.90;;;;;;5043490;28;20076;-49
2022/05/15 08:36:44;;;;;;;30.13;9.05;;;16.70;99.90;;;;;;5042600;28;20087;-53
2022/05/15 08:39:12;;;;;;;25.25;10.00;;;16.70;99.90;;;;;;5042912;28;20505;-50
2022/05/15 08:41:51;;;;;;;28.98;9.00;;;16.70;99.90;;;;;;5040865;28;20080;-51
2022/05/15 08:44:27;;;;;;;29.30;8.57;;;16.80;99.90;;;;;;5040927;28;20041;-54
2022/05/15 08:47:20;;;;;;;28.50;10.15;;;16.80;99.90;;;;;;5041746;28;20085;-55
2022/05/15 08:50:02;;;;;;;30.65;10.68;;;16.90;99.90;;;;;;5037540;28;20056;-56
2022/05/15 08:52:48;;;;;;;27.63;9.23;;;17.00;99.90;;;;;;5041436;28;20084;-54
2022/05/15 08:55:28;;;;;;;30.52;9.23;;;17.00;99.90;;;;;;5040991;28;20092;-54
2022/05/15 08:57:56;;;;;;;29.73;9.32;;;17.10;99.90;;;;;;5040215;28;20140;-55
2022/05/15 09:00:30;;;;;;;25.40;9.25;;;17.20;99.90;;;;;;5040978;28;20461;-56
2022/05/15 09:03:08;;;;;;;37.13;11.73;;;17.30;99.90;;;;;;5041997;28;20095;-53
2022/05/15 09:05:35;;;;;;;31.88;9.90;;;17.40;99.90;;;;;;5024789;28;20103;-53
2022/05/15 09:08:17;;;;;;;23.88;9.73;;;17.60;99.90;;;;;;5041500;28;20057;-56
2022/05/15 09:10:54;;;;;;;27.83;8.80;;;17.70;99.90;;;;;;5041174;28;20412;-54
2022/05/15 09:13:45;;;;;;;22.42;8.10;;;17.80;99.90;;;;;;5043754;28;20124;-54
2022/05/15 09:16:27;;;;;;;23.67;8.57;;;18.00;99.90;;;;;;5045255;28;20049;-52
2022/05/15 09:19:02;;;;;;;24.15;8.68;;;18.00;99.90;;;;;;5045426;28;20122;-55
2022/05/15 09:21:28;;;;;;;30.48;9.48;;;18.10;99.90;;;;;;5045535;28;20132;-49
2022/05/15 09:23:55;;;;;;;25.30;8.88;;;18.10;99.90;;;;;;5046845;28;21002;-54
2022/05/15 09:26:30;;;;;;;20.25;8.85;;;18.20;99.90;;;;;;5055072;28;20467;-56
2022/05/15 09:29:00;;;;;;;28.00;9.32;;;18.10;99.90;;;;;;5045195;28;20118;-54
2022/05/15 09:31:42;;;;;;;32.47;8.45;;;18.10;99.90;;;;;;5045910;28;20052;-54
2022/05/15 09:34:25;;;;;;;30.45;10.15;;;18.10;99.90;;;;;;5045305;28;20059;-56
2022/05/15 09:38:26;;;;;;;22.00;7.63;;;18.20;99.90;;;;;;5046222;28;20080;-57
2022/05/15 09:39:44;;;;;;;21.23;8.40;;;18.30;99.90;;;;;;5044762;28;20047;-55
2022/05/15 09:44:57;;;;;;;27.25;8.73;;;18.30;99.90;;;;;;5045676;28;20053;-56
2022/05/15 09:47:31;;;;;;;33.30;9.05;;;18.30;99.90;;;;;;5045808;28;20045;-55
2022/05/15 09:49:58;;;;;;;23.48;9.40;;;18.30;99.90;;;;;;5044661;28;20049;-55
2022/05/15 09:52:38;;;;;;;26.63;9.02;;;18.30;99.90;;;;;;5046103;28;20083;-53
2022/05/15 09:55:21;;;;;;;28.15;8.60;;;18.30;99.90;;;;;;5045541;28;20073;-53
2022/05/15 09:57:59;;;;;;;25.57;8.20;;;18.20;99.90;;;;;;5044898;28;20064;-54
2022/05/15 10:00:29;;;;;;;28.92;8.15;;;18.20;99.90;;;;;;5040229;28;20301;-56
2022/05/15 10:03:03;;;;;;;26.08;8.75;;;18.20;99.90;;;;;;5046495;28;20083;-55
2022/05/15 10:05:33;;;;;;;27.83;8.15;;;18.20;99.90;;;;;;5047433;28;20578;-56
2022/05/15 10:08:05;;;;;;;31.88;6.97;;;18.20;99.90;;;;;;5045997;28;20119;-55
2022/05/15 10:10:33;;;;;;;19.02;7.18;;;18.20;99.90;;;;;;5045587;28;20072;-54
2022/05/15 10:13:23;;;;;;;24.13;6.80;;;18.20;99.90;;;;;;5044391;28;20413;-56
2022/05/15 10:15:50;;;;;;;21.92;8.27;;;18.20;99.90;;;;;;5040340;28;20037;-55
2022/05/15 10:18:22;;;;;;;20.63;8.20;;;18.20;99.90;;;;;;5044858;28;20056;-52
2022/05/15 10:20:50;;;;;;;18.73;7.55;;;18.20;99.90;;;;;;5028138;28;20045;-54
2022/05/15 10:23:30;;;;;;;23.55;8.88;;;18.10;99.90;;;;;;5043646;28;20480;-54
2022/05/15 10:25:59;;;;;;;31.80;8.80;;;18.00;99.90;;;;;;5020865;28;20169;-56
2022/05/15 10:28:32;;;;;;;20.38;7.72;;;17.90;99.90;;;;;;5044587;28;20093;-55
2022/05/15 10:31:10;;;;;;;24.02;7.72;;;17.90;99.90;;;;;;5038757;28;20041;-55
2022/05/15 10:33:40;;;;;;;17.95;8.30;;;17.90;99.90;;;;;;5044409;28;20514;-56
2022/05/15 10:36:32;;;;;;;30.15;9.13;;;17.80;99.90;;;;;;5044431;28;20492;-53
2022/05/15 10:39:15;;;;;;;18.02;8.40;;;17.80;99.90;;;;;;5045712;28;20053;-55
2022/05/15 10:42:10;;;;;;;21.73;9.43;;;17.80;99.90;;;;;;5044738;28;20045;-56
2022/05/15 10:44:43;;;;;;;28.13;8.80;;;17.80;99.90;;;;;;5044323;28;20511;-54
2022/05/15 10:47:16;;;;;;;21.85;8.63;;;17.80;99.90;;;;;;5041197;28;20079;-55
2022/05/15 10:50:01;;;;;;;29.65;10.32;;;17.80;99.90;;;;;;5041915;28;20083;-52
2022/05/15 10:57:21;;;;;;;22.80;8.73;;;17.80;99.90;;;;;;5043919;28;20053;-56
2022/05/15 10:59:02;;;;;;;24.10;10.60;;;17.70;99.90;;;;;;5043004;28;20140;-56
2022/05/15 11:01:34;;;;;;;29.83;10.60;;;17.60;99.90;;;;;;5041573;28;20076;-56
2022/05/15 11:04:13;;;;;;;27.88;9.90;;;17.60;99.90;;;;;;5043350;28;20106;-56
2022/05/15 11:07:24;;;;;;;25.58;9.40;;;17.60;99.90;;;;;;5042776;28;20146;-57
2022/05/15 11:10:18;;;;;;;37.75;13.63;;;17.70;99.90;;;;;;5022561;28;20128;-58
2022/05/15 11:12:45;;;;;;;21.42;9.18;;;17.70;99.90;;;;;;5036420;28;20052;-55
2022/05/15 11:15:41;;;;;;;20.20;9.25;;;17.70;99.90;;;;;;5044007;28;20144;-55
2022/05/15 11:18:40;;;;;;;24.98;9.82;;;17.70;99.90;;;;;;5043179;28;20087;-56
2022/05/15 11:21:12;;;;;;;29.50;11.43;;;17.60;99.90;;;;;;5026065;28;20072;-54
2022/05/15 11:23:40;;;;;;;25.80;11.57;;;17.50;99.90;;;;;;5043002;28;20171;-54
2022/05/15 11:26:28;;;;;;;26.13;10.77;;;17.40;99.90;;;;;;5044921;28;20132;-55
2022/05/15 11:28:56;;;;;;;20.88;9.95;;;17.30;99.90;;;;;;5038555;28;20116;-56
2022/05/15 11:31:34;;;;;;;26.23;11.40;;;17.30;99.90;;;;;;5026410;28;20620;-56
2022/05/15 11:34:03;;;;;;;33.78;10.40;;;17.30;99.90;;;;;;5037976;28;20476;-49
2022/05/15 11:36:35;;;;;;;27.85;11.90;;;17.20;99.90;;;;;;5042858;28;20080;-54
2022/05/15 11:39:05;;;;;;;23.33;10.05;;;17.20;99.90;;;;;;5034166;28;20732;-58
2022/05/15 11:41:35;;;;;;;29.65;11.55;;;17.20;99.90;;;;;;5040990;28;20143;-55
2022/05/15 11:44:18;;;;;;;24.92;11.65;;;17.20;99.90;;;;;;5032701;28;20076;-52
2022/05/15 11:46:47;;;;;;;25.45;9.73;;;17.20;99.90;;;;;;5042711;28;20691;-54
2022/05/15 11:49:17;;;;;;;13.60;7.53;;;17.10;99.90;;;;;;5042306;28;20072;-53
2022/05/15 11:51:53;;;;;;;18.58;7.53;;;17.10;99.90;;;;;;5042484;28;20135;-53
2022/05/15 11:54:30;;;;;;;20.08;7.05;;;17.10;99.90;;;;;;5039850;28;20084;-55
2022/05/15 11:56:57;;;;;;;17.83;7.10;;;17.20;99.90;;;;;;5023895;28;20496;-52
2022/05/15 11:59:28;;;;;;;18.40;7.90;;;17.30;99.90;;;;;;5041714;28;20084;-54
2022/05/15 12:01:56;;;;;;;17.58;6.90;;;17.40;99.90;;;;;;5041817;28;20139;-53
2022/05/15 12:04:36;;;;;;;18.95;6.50;;;17.40;99.90;;;;;;5040879;28;20155;-56
2022/05/15 12:07:03;;;;;;;11.90;5.45;;;17.50;99.90;;;;;;5041849;28;20076;-55
2022/05/15 12:09:49;;;;;;;12.10;5.70;;;17.60;99.90;;;;;;5042257;28;20049;-55
2022/05/15 12:12:23;;;;;;;14.85;4.43;;;17.60;99.90;;;;;;5042095;28;20118;-55
2022/05/15 12:15:16;;;;;;;12.68;5.38;;;17.50;99.90;;;;;;5042766;28;20463;-56
2022/05/15 12:17:44;;;;;;;17.52;5.20;;;17.50;99.90;;;;;;5040433;28;20067;-54
2022/05/15 12:20:15;;;;;;;10.75;4.70;;;17.60;99.90;;;;;;5035652;28;20124;-54
2022/05/15 12:22:46;;;;;;;9.38;5.00;;;17.70;99.90;;;;;;5043730;28;20052;-53
2022/05/15 12:25:14;;;;;;;12.85;4.97;;;17.80;99.90;;;;;;5043072;28;20124;-54
2022/05/15 12:30:50;;;;;;;12.07;4.75;;;17.70;99.90;;;;;;5040877;28;20642;-54
2022/05/15 12:33:25;;;;;;;11.43;4.18;;;17.80;99.90;;;;;;5042974;28;20080;-55
2022/05/15 12:35:52;;;;;;;11.40;5.22;;;17.80;99.90;;;;;;5043298;28;20144;-54
2022/05/15 12:38:20;;;;;;;9.90;4.10;;;17.90;99.90;;;;;;5036221;28;20051;-54
2022/05/15 12:41:07;;;;;;;16.02;6.00;;;17.90;99.90;;;;;;5043917;28;20144;-54
2022/05/15 12:43:44;;;;;;;11.95;4.72;;;17.90;99.90;;;;;;5040812;28;20048;-55
2022/05/15 12:46:31;;;;;;;10.13;4.50;;;17.80;99.90;;;;;;5045331;28;20131;-55
2022/05/15 12:48:58;;;;;;;17.27;5.78;;;17.80;99.90;;;;;;5046491;28;20481;-55
2022/05/15 12:51:45;;;;;;;11.98;4.93;;;17.80;99.90;;;;;;5047457;28;20043;-56
2022/05/15 12:54:23;;;;;;;16.63;5.93;;;17.80;99.90;;;;;;5047585;28;20084;-54
2022/05/15 12:57:17;;;;;;;14.13;5.38;;;17.80;99.90;;;;;;5042453;28;20049;-53
2022/05/15 12:59:47;;;;;;;20.30;7.80;;;17.80;99.90;;;;;;5046315;28;20512;-53
2022/05/15 13:02:31;;;;;;;13.05;6.03;;;17.80;99.90;;;;;;5046928;28;20133;-50
2022/05/15 13:04:59;;;;;;;19.25;7.43;;;17.70;99.90;;;;;;5046862;28;20147;-54
2022/05/15 13:07:31;;;;;;;13.88;6.57;;;17.70;99.90;;;;;;5046793;28;20102;-55
2022/05/15 13:10:24;;;;;;;17.25;7.80;;;17.70;99.90;;;;;;5046922;28;20757;-56
2022/05/15 13:13:10;;;;;;;20.90;9.10;;;17.70;99.90;;;;;;5045446;28;20053;-54
2022/05/15 13:15:45;;;;;;;41.42;17.15;;;17.60;99.90;;;;;;5044961;28;20152;-52